Time;durP1;ratioP1;P1;durP2;ratioP2;P2;SDS_P1;SDS_P2;PMS_P1;PMS_P2;Temp;Humidity;BMP_temperature;BMP_pressure;BME280_temperature;BME280_humidity;BME280_pressure;Samples;Min_cycle;Max_cycle;Signal;HPM_P1;HPM_P2
2022/05/30 00:01:34;;;;;;;2.27;2.17;;;;;;;19.98;95.98;98516.81;5012620;28;20198;-68
2022/05/30 00:04:03;;;;;;;2.53;2.30;;;;;;;19.91;96.53;98519.94;5012413;28;20621;-68
2022/05/30 00:06:30;;;;;;;2.73;2.63;;;;;;;19.90;95.89;98513.06;5011342;28;20214;-68
2022/05/30 00:08:57;;;;;;;2.70;2.50;;;;;;;19.89;95.67;98516.63;5009432;28;20247;-69
2022/05/30 00:11:25;;;;;;;2.40;2.30;;;;;;;19.87;95.81;98528.91;5008648;28;20202;-68
2022/05/30 00:13:51;;;;;;;3.20;2.90;;;;;;;19.88;95.80;98522.78;5009731;28;20690;-68
2022/05/30 00:16:23;;;;;;;2.90;2.70;;;;;;;19.81;95.58;98510.38;5008458;28;20202;-68
2022/05/30 00:18:50;;;;;;;2.63;2.43;;;;;;;19.83;95.48;98530.16;5010863;28;20198;-69
2022/05/30 00:21:21;;;;;;;2.33;2.23;;;;;;;19.81;96.05;98529.44;5011163;28;20217;-68
2022/05/30 00:23:49;;;;;;;3.63;3.03;;;;;;;19.74;96.03;98538.66;5012360;28;20574;-68
2022/05/30 00:26:16;;;;;;;2.53;2.10;;;;;;;19.65;96.63;98549.81;5011537;28;20700;-69
2022/05/30 00:28:44;;;;;;;6.70;2.97;;;;;;;19.64;96.86;98552.56;5011897;28;20225;-69
2022/05/30 00:31:15;;;;;;;7.20;2.93;;;;;;;19.64;97.44;98552.56;5010421;28;20631;-69
2022/05/30 00:33:44;;;;;;;5.47;2.50;;;;;;;19.59;97.38;98550.31;5009487;28;20210;-68
2022/05/30 00:36:11;;;;;;;2.37;2.27;;;;;;;19.53;98.16;98540.41;5009702;28;20570;-68
2022/05/30 00:38:40;;;;;;;5.80;2.77;;;;;;;19.45;98.85;98542.78;5007777;28;20558;-68
2022/05/30 00:41:08;;;;;;;2.93;2.53;;;;;;;19.42;99.53;98542.25;5008360;28;20576;-68
2022/05/30 00:43:37;;;;;;;2.40;2.30;;;;;;;19.38;99.82;98536.41;5009252;28;20224;-68
2022/05/30 00:46:12;;;;;;;3.43;3.13;;;;;;;19.25;100.00;98533.97;5009782;28;20202;-68
2022/05/30 00:48:42;;;;;;;2.90;2.80;;;;;;;19.17;100.00;98535.50;5011187;28;20772;-68
2022/05/30 00:51:13;;;;;;;2.83;2.40;;;;;;;19.19;100.00;98541.44;5010766;28;20213;-68
2022/05/30 00:53:43;;;;;;;3.10;2.93;;;;;;;19.15;100.00;98529.63;5007120;28;20210;-68
2022/05/30 00:56:11;;;;;;;3.33;2.97;;;;;;;19.18;100.00;98540.59;5005642;28;20712;-70
2022/05/30 00:58:44;;;;;;;3.37;3.17;;;;;;;19.15;100.00;98547.81;5005900;28;20663;-68
2022/05/30 01:01:10;;;;;;;3.07;2.87;;;;;;;19.10;100.00;98552.50;5009337;28;20205;-69
2022/05/30 01:06:32;;;;;;;3.80;2.70;;;;;;;18.97;100.00;98549.22;5009467;28;20213;-69
2022/05/30 01:09:02;;;;;;;3.00;2.80;;;;;;;18.97;100.00;98552.66;5011339;28;20706;-68
2022/05/30 01:11:47;;;;;;;5.30;3.13;;;;;;;18.86;100.00;98548.31;5010933;28;20229;-68
2022/05/30 01:14:14;;;;;;;2.63;2.50;;;;;;;18.91;100.00;98547.09;5009734;28;20201;-68
2022/05/30 01:16:41;;;;;;;3.17;2.93;;;;;;;18.94;100.00;98541.66;5010980;28;20595;-68
2022/05/30 01:19:20;;;;;;;3.67;3.47;;;;;;;19.00;100.00;98546.41;5009330;28;20213;-69
2022/05/30 01:22:04;;;;;;;3.30;2.93;;;;;;;19.09;100.00;98553.47;5010662;28;20248;-68
2022/05/30 01:24:44;;;;;;;3.33;2.70;;;;;;;18.92;100.00;98533.19;5008614;28;20211;-68
2022/05/30 01:27:32;;;;;;;3.23;3.03;;;;;;;19.13;100.00;98555.69;5010545;28;20268;-68
2022/05/30 01:30:05;;;;;;;3.60;2.50;;;;;;;19.13;100.00;98562.66;5010648;28;20286;-68
2022/05/30 01:32:32;;;;;;;3.60;3.30;;;;;;;19.02;100.00;98549.72;5010986;28;20201;-68
2022/05/30 01:34:59;;;;;;;3.27;2.97;;;;;;;18.84;100.00;98542.38;5010589;28;20204;-68
2022/05/30 01:37:26;;;;;;;4.57;3.03;;;;;;;18.86;100.00;98560.47;5008956;28;20202;-68
2022/05/30 01:39:52;;;;;;;3.50;3.30;;;;;;;18.80;100.00;98556.53;5010501;28;20287;-68
2022/05/30 01:42:19;;;;;;;3.60;3.33;;;;;;;18.85;100.00;98570.03;5008575;28;20206;-68
2022/05/30 01:44:46;;;;;;;3.03;2.70;;;;;;;18.84;100.00;98560.56;5011047;28;20712;-68
2022/05/30 01:47:14;;;;;;;2.47;2.37;;;;;;;18.83;100.00;98566.72;5010078;28;20205;-68
2022/05/30 01:49:41;;;;;;;2.33;2.23;;;;;;;18.80;100.00;98556.53;5010102;28;20863;-68
2022/05/30 01:52:08;;;;;;;2.20;2.10;;;;;;;18.76;100.00;98555.16;5009983;28;20209;-68
2022/05/30 01:54:35;;;;;;;3.40;3.20;;;;;;;18.73;100.00;98560.59;5010461;28;20583;-68
2022/05/30 01:57:03;;;;;;;3.53;3.33;;;;;;;18.67;100.00;98560.22;5010023;28;20210;-68
2022/05/30 01:59:30;;;;;;;3.20;3.00;;;;;;;18.48;100.00;98539.97;5006093;28;20582;-68
2022/05/30 02:01:57;;;;;;;3.53;3.33;;;;;;;18.59;100.00;98557.38;5009825;28;20194;-68
2022/05/30 02:04:25;;;;;;;2.40;2.30;;;;;;;18.55;100.00;98566.31;5010073;28;20229;-68
2022/05/30 02:06:51;;;;;;;3.50;3.30;;;;;;;18.54;100.00;98565.53;5010608;28;20206;-68
2022/05/30 02:09:18;;;;;;;2.80;2.60;;;;;;;18.47;100.00;98569.50;5009900;28;20228;-68
2022/05/30 02:11:45;;;;;;;4.60;4.20;;;;;;;18.37;100.00;98558.16;5010235;28;20205;-68
2022/05/30 02:14:12;;;;;;;3.60;3.40;;;;;;;18.41;100.00;98575.16;5008732;28;20224;-68
2022/05/30 02:19:24;;;;;;;3.07;2.87;;;;;;;18.32;100.00;98581.00;5010035;28;20279;-68
2022/05/30 02:21:52;;;;;;;2.63;2.50;;;;;;;18.28;100.00;98574.41;5010381;28;20202;-68
2022/05/30 02:24:18;;;;;;;3.20;3.00;;;;;;;18.24;100.00;98583.34;5009707;28;20233;-68
2022/05/30 02:26:45;;;;;;;3.30;3.10;;;;;;;18.20;100.00;98592.28;5010604;28;20216;-68
2022/05/30 02:29:12;;;;;;;4.93;3.40;;;;;;;18.18;100.00;98589.00;5010012;28;20218;-68
2022/05/30 02:31:39;;;;;;;3.83;3.50;;;;;;;18.11;100.00;98593.81;5010397;28;20198;-68
2022/05/30 02:36:52;;;;;;;3.93;3.63;;;;;;;18.07;100.00;98607.09;5010371;28;20221;-68
2022/05/30 02:39:21;;;;;;;4.33;4.03;;;;;;;18.03;100.00;98608.28;5007697;28;20206;-67
2022/05/30 02:41:49;;;;;;;4.00;3.80;;;;;;;17.92;100.00;98597.84;5009803;28;20206;-68
2022/05/30 02:44:19;;;;;;;3.87;3.57;;;;;;;17.96;100.00;98614.84;5009813;28;20578;-68
2022/05/30 02:46:46;;;;;;;3.67;3.47;;;;;;;17.95;100.00;98611.44;5009914;28;20199;-68
2022/05/30 02:49:12;;;;;;;6.67;3.80;;;;;;;17.92;100.00;98618.59;5009739;28;20226;-68
2022/05/30 02:51:39;;;;;;;4.00;3.70;;;;;;;17.89;100.00;98619.66;5009762;28;20213;-68
2022/05/30 02:54:08;;;;;;;3.90;3.70;;;;;;;17.89;100.00;98629.19;5009849;28;20213;-68
2022/05/30 02:56:35;;;;;;;3.70;3.50;;;;;;;17.92;100.00;98640.19;5009181;28;20221;-68
2022/05/30 02:59:03;;;;;;;4.37;3.73;;;;;;;17.95;100.00;98639.13;5008173;28;20657;-68
2022/05/30 03:01:31;;;;;;;3.83;3.50;;;;;;;17.98;100.00;98647.50;5007944;28;20285;-68
2022/05/30 03:03:58;;;;;;;3.37;3.17;;;;;;;18.01;100.00;98649.03;5009544;28;20241;-68
2022/05/30 03:06:25;;;;;;;3.93;3.63;;;;;;;17.98;100.00;98649.28;5009605;28;20196;-68
2022/05/30 03:08:53;;;;;;;4.00;3.70;;;;;;;17.90;100.00;98656.78;5009843;28;20237;-68
2022/05/30 03:11:22;;;;;;;3.00;2.90;;;;;;;17.77;100.00;98652.47;5013350;28;20206;-68
2022/05/30 03:13:49;;;;;;;3.27;3.07;;;;;;;17.73;100.00;98640.66;5013591;28;20565;-68
2022/05/30 03:16:16;;;;;;;3.83;3.63;;;;;;;17.70;100.00;98666.81;5012528;28;20573;-68
2022/05/30 03:18:44;;;;;;;4.73;3.83;;;;;;;17.70;100.00;98671.16;5012220;28;20213;-68
2022/05/30 03:21:12;;;;;;;4.43;3.47;;;;;;;17.70;100.00;98666.81;5010944;28;20682;-68
2022/05/30 03:23:39;;;;;;;4.73;2.80;;;;;;;17.67;100.00;98672.19;5010196;28;20655;-68
2022/05/30 03:26:06;;;;;;;3.57;3.33;;;;;;;17.63;100.00;98675.94;5011213;28;20689;-68
2022/05/30 03:28:35;;;;;;;5.60;2.93;;;;;;;17.68;100.00;98684.22;5009374;28;20244;-68
2022/05/30 03:31:04;;;;;;;5.33;3.30;;;;;;;17.68;100.00;98679.03;5007830;28;20851;-68
2022/05/30 03:33:31;;;;;;;3.47;3.17;;;;;;;17.57;100.00;98663.44;5008648;28;20693;-68
2022/05/30 03:35:58;;;;;;;2.40;2.30;;;;;;;17.84;100.00;98694.34;5009003;28;20195;-68
2022/05/30 03:38:25;;;;;;;6.20;2.97;;;;;;;17.94;100.00;98700.53;5011352;28;20206;-68
2022/05/30 03:40:52;;;;;;;10.10;2.70;;;;;;;18.12;100.00;98688.03;5011476;28;20206;-68
2022/05/30 03:43:18;;;;;;;5.13;2.80;;;;;;;18.16;100.00;98699.81;5010547;28;20646;-68
2022/05/30 03:45:47;;;;;;;2.70;2.60;;;;;;;18.20;100.00;98701.25;5012229;28;20221;-68
2022/05/30 03:48:15;;;;;;;2.50;2.40;;;;;;;18.30;100.00;98703.06;5011093;28;20221;-68
2022/05/30 03:50:45;;;;;;;3.30;2.70;;;;;;;18.42;100.00;98706.53;5012612;28;20218;-68
2022/05/30 03:53:13;;;;;;;3.40;3.13;;;;;;;18.54;100.00;98710.88;5012315;28;20297;-68
2022/05/30 03:55:42;;;;;;;2.73;2.63;;;;;;;18.66;100.00;98709.97;5012372;28;20198;-67
2022/05/30 03:58:11;;;;;;;2.63;2.53;;;;;;;18.73;100.00;98710.34;5012540;28;20662;-68
2022/05/30 04:00:39;;;;;;;2.93;2.83;;;;;;;18.78;100.00;98722.03;5012209;28;20194;-67
2022/05/30 04:03:08;;;;;;;4.73;3.20;;;;;;;18.91;100.00;98718.50;5012060;28;20209;-68
2022/05/30 04:05:35;;;;;;;2.87;2.77;;;;;;;18.98;100.00;98724.91;5012281;28;20194;-68
2022/05/30 04:08:02;;;;;;;5.90;3.23;;;;;;;18.96;100.00;98724.22;5012100;28;20202;-68
2022/05/30 04:10:29;;;;;;;3.23;3.13;;;;;;;19.08;100.00;98734.50;5011926;28;20579;-67
2022/05/30 04:13:03;;;;;;;3.23;3.13;;;;;;;19.22;100.00;98728.28;5011126;28;20582;-68
2022/05/30 04:15:31;;;;;;;3.77;2.50;;;;;;;19.28;100.00;98738.19;5009122;28;20574;-68
2022/05/30 04:17:58;;;;;;;2.63;2.43;;;;;;;19.33;100.00;98733.47;5011102;28;20202;-68
2022/05/30 04:20:26;;;;;;;3.10;2.90;;;;;;;19.42;100.00;98730.19;5010113;28;20198;-68
2022/05/30 04:22:53;;;;;;;2.80;2.60;;;;;;;19.46;100.00;98741.19;5011895;28;20274;-68
2022/05/30 04:25:20;;;;;;;2.57;2.47;;;;;;;19.43;100.00;98741.41;5011798;28;20696;-68
2022/05/30 04:27:47;;;;;;;2.63;2.43;;;;;;;19.36;100.00;98735.81;5011088;28;20221;-68
2022/05/30 04:30:14;;;;;;;2.90;2.70;;;;;;;19.33;100.00;98729.09;5008715;28;20222;-68
2022/05/30 04:32:41;;;;;;;3.50;3.20;;;;;;;19.56;100.00;98747.31;5011648;28;20198;-67
2022/05/30 04:35:09;;;;;;;3.27;3.07;;;;;;;19.69;99.09;98748.88;5009641;28;20210;-68
2022/05/30 04:37:38;;;;;;;2.80;2.70;;;;;;;19.84;98.16;98746.84;5009709;28;20575;-68
2022/05/30 04:40:06;;;;;;;3.07;2.73;;;;;;;20.02;97.51;98750.59;5010409;28;20278;-68
2022/05/30 04:42:33;;;;;;;2.83;2.73;;;;;;;20.22;95.38;98754.25;5010705;28;20649;-68
2022/05/30 04:45:00;;;;;;;3.00;2.73;;;;;;;20.38;94.51;98767.72;5010227;28;20689;-68
2022/05/30 04:47:27;;;;;;;4.03;2.43;;;;;;;20.51;92.84;98757.97;5010304;28;20205;-69
2022/05/30 04:49:54;;;;;;;4.40;2.10;;;;;;;20.64;91.79;98761.22;5008325;28;20247;-68
2022/05/30 04:52:20;;;;;;;2.27;2.10;;;;;;;20.75;90.65;98774.19;5009578;28;20210;-69
2022/05/30 04:54:49;;;;;;;6.77;2.43;;;;;;;20.91;90.35;98771.97;5009799;28;20202;-68
2022/05/30 04:57:16;;;;;;;2.50;2.40;;;;;;;20.99;89.49;98767.91;5008754;28;20207;-68
2022/05/30 04:59:43;;;;;;;2.83;2.63;;;;;;;21.23;90.11;98771.13;5009476;28;20700;-68
2022/05/30 05:02:12;;;;;;;2.70;2.60;;;;;;;21.51;88.73;98780.91;5005582;28;20198;-68
2022/05/30 05:04:41;;;;;;;5.87;2.63;;;;;;;21.70;85.99;98780.16;5009252;28;20643;-69
2022/05/30 05:07:09;;;;;;;2.13;1.90;;;;;;;21.74;85.09;98777.16;5006997;28;20210;-74
2022/05/30 05:09:41;;;;;;;2.03;1.73;;;;;;;21.82;85.13;98789.53;5008412;28;20239;-69
2022/05/30 05:12:09;;;;;;;2.07;1.97;;;;;;;22.02;81.55;98795.69;5008995;28;20726;-74
2022/05/30 05:14:37;;;;;;;2.50;2.38;;;;;;;21.98;82.93;98784.69;5008721;28;20508;-64
2022/05/30 05:17:07;;;;;;;2.93;2.03;;;;;;;22.16;82.69;98782.25;5006831;28;20219;-64
2022/05/30 05:19:34;;;;;;;2.53;2.43;;;;;;;22.02;82.00;98786.06;5010708;28;20696;-65
2022/05/30 05:22:01;;;;;;;5.13;2.80;;;;;;;21.95;81.69;98795.38;5011197;28;20208;-64
2022/05/30 05:24:28;;;;;;;3.63;2.53;;;;;;;21.86;82.72;98778.72;5010403;28;20578;-64
2022/05/30 05:26:54;;;;;;;2.60;2.50;;;;;;;22.13;82.84;98795.59;5011048;28;20699;-64
2022/05/30 05:29:23;;;;;;;2.60;2.50;;;;;;;22.19;82.63;98793.28;5009440;28;20231;-65
2022/05/30 05:31:51;;;;;;;3.77;2.40;;;;;;;22.37;82.25;98793.44;5008617;28;20575;-64
2022/05/30 05:34:18;;;;;;;2.97;2.60;;;;;;;22.45;81.77;98793.59;5010525;28;20205;-64
2022/05/30 05:36:48;;;;;;;2.83;2.57;;;;;;;22.66;82.06;98790.88;5010548;28;20215;-65
2022/05/30 05:39:17;;;;;;;4.13;2.73;;;;;;;22.90;80.81;98794.75;5010545;28;20208;-65
2022/05/30 05:41:45;;;;;;;2.50;2.30;;;;;;;22.99;80.36;98799.13;5010358;28;20591;-64
2022/05/30 05:44:13;;;;;;;2.57;2.47;;;;;;;22.98;78.87;98797.47;5010785;28;20208;-64
2022/05/30 05:46:42;;;;;;;3.00;2.83;;;;;;;23.11;77.58;98799.81;5009691;28;20700;-64
2022/05/30 05:49:09;;;;;;;2.90;2.70;;;;;;;23.24;77.08;98802.13;5011286;28;20224;-63
2022/05/30 05:51:38;;;;;;;2.97;2.77;;;;;;;23.28;75.20;98798.25;5010913;28;20666;-64
2022/05/30 05:54:05;;;;;;;8.20;2.53;;;;;;;23.32;76.73;98804.88;5010944;28;20212;-64
2022/05/30 05:56:32;;;;;;;2.90;2.30;;;;;;;23.47;76.59;98804.31;5010901;28;20301;-65
2022/05/30 05:58:59;;;;;;;2.17;2.07;;;;;;;23.59;74.96;98807.56;5011152;28;20200;-64
2022/05/30 06:01:28;;;;;;;4.43;2.33;;;;;;;23.82;76.19;98808.88;5010768;28;20201;-64
2022/05/30 06:03:59;;;;;;;6.00;2.50;;;;;;;24.13;76.03;98826.97;5010946;28;20204;-64
2022/05/30 06:06:27;;;;;;;2.90;2.70;;;;;;;24.27;74.05;98836.94;5010997;28;20193;-64
2022/05/30 06:08:55;;;;;;;2.73;2.63;;;;;;;24.32;70.64;98827.69;5010675;28;20634;-64
2022/05/30 06:11:22;;;;;;;2.43;2.23;;;;;;;24.58;70.99;98843.53;5011098;28;20202;-64
2022/05/30 06:13:50;;;;;;;2.90;2.70;;;;;;;24.67;71.00;98834.78;5010968;28;20212;-64
2022/05/30 06:16:20;;;;;;;2.83;2.73;;;;;;;24.88;70.69;98837.94;5011045;28;20578;-65
2022/05/30 06:18:47;;;;;;;2.60;2.40;;;;;;;24.94;70.57;98839.16;5010755;28;20206;-65
2022/05/30 06:21:15;;;;;;;2.70;2.43;;;;;;;24.72;68.07;98834.34;5010698;28;20198;-64
2022/05/30 06:23:44;;;;;;;3.43;3.23;;;;;;;24.78;69.38;98844.22;5010557;28;20194;-65
2022/05/30 06:26:11;;;;;;;6.10;3.03;;;;;;;24.97;67.74;98842.31;5009622;28;20205;-65
2022/05/30 06:28:40;;;;;;;3.40;3.20;;;;;;;25.24;67.65;98841.38;5009271;28;20206;-64
2022/05/30 06:31:08;;;;;;;3.50;3.20;;;;;;;25.16;66.79;98837.88;5010642;28;20694;-65
2022/05/30 06:33:36;;;;;;;3.00;2.80;;;;;;;25.30;67.25;98839.97;5009741;28;20202;-65
2022/05/30 06:36:04;;;;;;;3.13;3.03;;;;;;;25.24;66.18;98835.28;5009976;28;20202;-64
2022/05/30 06:38:33;;;;;;;3.13;2.93;;;;;;;25.43;65.28;98850.84;5010563;28;20202;-65
2022/05/30 06:41:11;;;;;;;3.23;3.03;;;;;;;25.68;66.05;98844.00;5010721;28;20655;-64
2022/05/30 06:43:38;;;;;;;3.43;2.90;;;;;;;25.74;66.55;98849.47;5010918;28;20256;-64
2022/05/30 06:46:05;;;;;;;3.70;3.50;;;;;;;25.85;65.60;98845.75;5014209;28;20209;-64
2022/05/30 06:48:32;;;;;;;3.30;3.00;;;;;;;25.76;65.68;98844.88;5014315;28;20198;-64
2022/05/30 11:37:07;;;;;;;1.55;1.55;;;;;;;32.06;42.39;98880.41;4999280;28;20232;-65
2022/05/30 11:39:51;;;;;;;3.70;3.40;;;;;;;32.10;40.62;98883.47;5010111;28;20202;-66
2022/05/30 11:42:35;;;;;;;1.58;1.58;;;;;;;32.09;39.84;98890.63;5013693;28;20194;-66
2022/05/30 11:48:36;;;;;;;2.55;1.60;;;;;;;32.23;41.33;98892.34;4972194;28;20223;-66
2022/05/30 11:51:20;;;;;;;2.53;2.33;;;;;;;32.18;39.20;98878.81;4971972;28;20323;-66
2022/05/30 11:54:22;;;;;;;4.00;2.03;;;;;;;32.35;38.17;98891.75;4972324;28;20204;-66
2022/05/30 11:56:58;;;;;;;1.70;1.60;;;;;;;32.44;40.35;98885.28;4972316;28;20733;-66
2022/05/30 11:59:56;;;;;;;2.55;1.90;;;;;;;32.53;40.82;98886.75;4972217;28;20210;-66
2022/05/30 12:02:28;;;;;;;2.63;2.05;;;;;;;32.43;40.94;98889.78;4972002;28;20196;-66
2022/05/30 12:05:42;;;;;;;1.98;1.88;;;;;;;32.55;40.77;98884.69;4972142;28;20214;-66
2022/05/30 12:08:25;;;;;;;2.83;2.00;;;;;;;32.52;39.88;98893.88;4932767;29;20205;-66
2022/05/30 12:11:16;;;;;;;2.92;2.05;;;;;;;32.52;37.69;98891.22;4970553;28;20222;-66
2022/05/30 12:13:59;;;;;;;1.77;1.67;;;;;;;32.58;40.15;98894.94;5010195;28;20213;-66
2022/05/30 12:16:41;;;;;;;7.00;5.00;;;;;;;32.68;40.05;98890.09;5011302;28;20202;-66
2022/05/30 12:25:46;;;;;;;11.15;2.00;;;;;;;32.83;38.37;98885.41;5012601;28;20241;-66
2022/05/30 12:28:50;;;;;;;2.53;2.42;;;;;;;32.82;37.97;98886.47;5012478;28;20198;-66
2022/05/30 12:31:34;;;;;;;3.05;2.13;;;;;;;32.48;38.57;98883.84;5012375;28;20214;-66
2022/05/30 12:34:01;;;;;;;2.00;1.90;;;;;;;32.37;40.69;98881.78;5012491;28;20221;-66
2022/05/30 12:36:38;;;;;;;3.15;2.17;;;;;;;32.42;41.10;98884.66;5012122;28;20238;-66
2022/05/30 12:39:26;;;;;;;1.85;1.75;;;;;;;32.42;38.72;98884.66;5012524;28;20259;-66
2022/05/30 12:41:58;;;;;;;1.75;1.65;;;;;;;32.49;39.32;98885.50;5011044;28;20202;-66
2022/05/30 12:44:45;;;;;;;2.00;1.90;;;;;;;32.51;38.83;98878.16;5011906;28;20202;-66
2022/05/30 12:47:17;;;;;;;2.97;1.90;;;;;;;32.49;39.14;98881.03;5012502;28;20194;-66
2022/05/30 12:49:50;;;;;;;2.05;1.67;;;;;;;32.55;35.91;98884.69;5012139;28;20236;-66
2022/05/30 12:52:19;;;;;;;2.30;2.10;;;;;;;32.58;37.19;98885.16;5012410;28;20700;-66
2022/05/30 12:55:02;;;;;;;3.90;2.10;;;;;;;32.58;37.71;98885.16;5012276;28;20198;-66
2022/05/30 12:57:41;;;;;;;2.60;2.50;;;;;;;32.57;38.59;98885.38;5011976;28;20217;-66
2022/05/30 13:00:41;;;;;;;2.78;2.20;;;;;;;32.46;37.69;98875.28;5011964;28;20251;-66
2022/05/30 13:03:32;;;;;;;2.22;2.13;;;;;;;32.48;36.21;98886.50;4991353;28;20289;-66
2022/05/30 13:06:05;;;;;;;2.95;2.10;;;;;;;32.58;37.35;98877.19;5012010;28;20197;-66
2022/05/30 13:09:06;;;;;;;5.88;3.05;;;;;;;32.71;36.34;98879.06;5011482;28;20257;-66
2022/05/30 13:11:49;;;;;;;3.70;2.00;;;;;;;32.78;35.81;98874.59;5008711;28;20223;-66
2022/05/30 13:14:27;;;;;;;2.03;1.92;;;;;;;32.68;35.85;98874.16;5010869;28;20670;-66
2022/05/30 13:17:02;;;;;;;3.15;2.65;;;;;;;32.74;35.53;98878.66;5011279;28;20237;-66
2022/05/30 13:19:31;;;;;;;2.40;2.28;;;;;;;32.67;36.74;98883.13;5011430;28;20198;-66
2022/05/30 13:21:58;;;;;;;2.45;1.85;;;;;;;32.67;36.86;98872.50;5011850;28;20237;-66
2022/05/30 13:24:28;;;;;;;2.33;1.98;;;;;;;32.53;34.83;98876.13;5011611;28;20313;-67
2022/05/30 13:26:55;;;;;;;2.13;2.03;;;;;;;32.62;37.94;98867.00;5010901;28;20202;-66
2022/05/30 13:29:28;;;;;;;2.65;1.85;;;;;;;32.68;38.34;98874.16;5011074;28;20206;-66
2022/05/30 13:31:55;;;;;;;5.25;2.72;;;;;;;32.67;38.45;98870.69;5011523;28;20559;-66
2022/05/30 13:34:25;;;;;;;3.38;2.38;;;;;;;32.68;35.76;98884.78;5013599;28;20692;-66
2022/05/30 13:36:55;;;;;;;1.77;1.67;;;;;;;32.67;36.96;98880.47;5011073;28;20238;-66
2022/05/30 13:39:21;;;;;;;3.13;2.15;;;;;;;32.72;38.43;98886.84;5011518;28;20198;-66
2022/05/30 13:41:49;;;;;;;3.33;2.53;;;;;;;32.82;36.34;98886.47;5011111;28;20209;-66
2022/05/30 13:44:18;;;;;;;2.75;2.63;;;;;;;32.90;36.49;98880.94;5011648;28;20268;-66
2022/05/30 13:46:48;;;;;;;3.83;1.95;;;;;;;32.90;36.83;98888.91;5011433;28;20210;-66
2022/05/30 13:49:15;;;;;;;3.50;2.22;;;;;;;32.93;38.11;98872.56;5011532;28;20201;-67
2022/05/30 13:51:45;;;;;;;2.25;1.88;;;;;;;32.98;38.54;98890.56;5011837;28;20227;-66
2022/05/30 13:54:14;;;;;;;2.47;1.95;;;;;;;32.95;36.42;98888.31;5010738;28;20202;-66
2022/05/30 13:56:45;;;;;;;2.05;1.95;;;;;;;33.02;36.65;98886.50;5011472;28;20224;-66
2022/05/30 13:59:23;;;;;;;3.45;3.13;;;;;;;32.99;36.49;98886.91;5010994;28;20591;-66
2022/05/30 14:01:57;;;;;;;5.75;5.13;;;;;;;32.97;37.44;98889.75;5011244;28;20697;-66
2022/05/30 14:04:27;;;;;;;7.72;3.85;;;;;;;32.88;37.20;98890.97;5011165;28;20209;-66
2022/05/30 14:06:54;;;;;;;2.78;2.67;;;;;;;32.78;37.10;98879.91;5010898;28;20202;-66
2022/05/30 14:09:24;;;;;;;2.72;2.53;;;;;;;32.82;36.53;98889.13;5008391;28;20210;-66
2022/05/30 14:11:54;;;;;;;2.45;2.35;;;;;;;32.82;35.69;98890.94;5009778;28;20214;-66
2022/05/30 14:14:35;;;;;;;2.10;2.00;;;;;;;32.72;35.32;98870.09;5011060;28;20202;-66
2022/05/30 14:17:03;;;;;;;2.13;1.65;;;;;;;32.88;36.12;98884.84;5008114;28;20205;-66
2022/05/30 14:19:34;;;;;;;2.13;1.95;;;;;;;32.83;36.75;98877.44;5011017;28;20206;-66
2022/05/30 14:22:09;;;;;;;5.88;2.67;;;;;;;32.87;37.59;98881.34;5010653;28;20194;-66
2022/05/30 14:24:41;;;;;;;2.47;2.28;;;;;;;32.90;37.82;98888.09;5011062;28;20204;-66
2022/05/30 14:27:17;;;;;;;2.22;1.92;;;;;;;32.90;37.00;98888.91;5010797;28;20221;-66
2022/05/30 14:29:47;;;;;;;3.28;2.08;;;;;;;32.77;35.94;98880.91;5008121;28;20202;-66
2022/05/30 14:32:26;;;;;;;2.60;1.90;;;;;;;32.56;36.10;98889.00;5011037;28;20217;-66
2022/05/30 14:35:03;;;;;;;3.67;2.80;;;;;;;32.61;37.33;98882.09;5011280;28;20228;-66
2022/05/30 14:37:37;;;;;;;2.53;1.92;;;;;;;32.65;36.45;98870.06;5005518;28;20574;-66
2022/05/30 14:40:12;;;;;;;2.05;1.95;;;;;;;32.09;36.02;98880.00;5010866;28;20289;-66
2022/05/30 14:42:46;;;;;;;2.10;2.00;;;;;;;31.92;36.21;98878.69;5010878;28;20209;-67
2022/05/30 14:45:16;;;;;;;3.30;2.38;;;;;;;31.97;37.35;98876.25;5010791;28;20651;-66
2022/05/30 14:47:49;;;;;;;2.60;2.05;;;;;;;32.00;37.05;98878.50;5010882;28;20206;-66
2022/05/30 14:50:25;;;;;;;2.53;2.42;;;;;;;31.85;36.58;98879.63;5010447;28;20707;-66
2022/05/30 14:52:55;;;;;;;2.67;2.47;;;;;;;31.81;36.98;98871.25;5010933;28;20202;-66
2022/05/30 14:55:42;;;;;;;1.87;1.77;;;;;;;31.76;37.35;98871.03;5010762;28;20257;-66
2022/05/30 14:58:13;;;;;;;2.65;2.45;;;;;;;31.70;37.18;98866.47;5010924;28;20202;-66
2022/05/30 15:00:53;;;;;;;2.15;1.88;;;;;;;31.62;38.41;98866.63;5005448;28;20285;-66
2022/05/30 15:06:06;;;;;;;2.38;2.22;;;;;;;31.70;38.39;98869.13;5011815;28;20256;-66
2022/05/30 15:08:34;;;;;;;3.43;2.00;;;;;;;31.76;38.64;98867.56;5011469;28;20206;-66
2022/05/30 15:11:14;;;;;;;2.03;1.83;;;;;;;31.70;38.18;98869.13;5014215;28;20225;-66
2022/05/30 15:13:42;;;;;;;2.33;2.22;;;;;;;31.43;38.07;98869.94;5013750;28;20683;-66
2022/05/30 15:16:09;;;;;;;2.20;2.10;;;;;;;31.41;38.68;98864.00;5014609;28;20202;-66
2022/05/30 15:18:36;;;;;;;2.25;2.00;;;;;;;31.38;38.86;98862.53;5014122;28;20198;-66
2022/05/30 15:21:03;;;;;;;2.83;2.27;;;;;;;31.31;39.70;98868.81;5014019;28;21673;-66
2022/05/30 15:23:31;;;;;;;2.07;1.97;;;;;;;31.21;38.31;98864.66;5013717;28;20201;-66
2022/05/30 15:25:58;;;;;;;2.30;2.10;;;;;;;31.20;38.63;98860.38;5013915;28;20217;-66
2022/05/30 15:28:26;;;;;;;4.30;2.50;;;;;;;31.14;38.56;98858.50;5014118;28;20202;-66
2022/05/30 15:30:53;;;;;;;2.83;2.30;;;;;;;31.23;40.66;98861.81;5013931;28;20214;-65
2022/05/30 15:33:20;;;;;;;2.10;1.90;;;;;;;31.24;39.29;98869.56;5013424;28;20206;-66
2022/05/30 15:35:47;;;;;;;2.20;2.10;;;;;;;31.37;39.75;98868.06;5014420;28;20202;-66
2022/05/30 15:38:13;;;;;;;4.10;2.20;;;;;;;31.49;40.81;98863.84;5013337;28;20226;-66
2022/05/30 15:40:41;;;;;;;5.73;2.73;;;;;;;31.62;38.59;98867.47;5013324;28;20672;-66
2022/05/30 15:43:07;;;;;;;4.85;2.50;;;;;;;31.77;38.93;98871.81;5013881;28;20589;-66
2022/05/30 15:45:37;;;;;;;2.38;2.28;;;;;;;31.86;39.97;98874.13;5013317;28;20202;-66
2022/05/30 15:48:05;;;;;;;3.63;2.40;;;;;;;31.95;39.61;98872.97;5013905;28;20662;-66
2022/05/30 15:50:34;;;;;;;2.22;2.13;;;;;;;31.82;38.54;98866.78;5013331;28;20202;-66
2022/05/30 15:58:34;;;;;;;6.25;2.13;;;;;;;31.75;39.21;98882.63;5013442;28;20728;-66
2022/05/30 16:01:02;;;;;;;2.67;2.47;;;;;;;31.78;39.02;98882.25;5011803;28;20201;-66
2022/05/30 16:03:29;;;;;;;2.42;2.30;;;;;;;31.70;38.61;98890.34;5011001;28;20206;-66
2022/05/30 16:05:56;;;;;;;4.18;2.17;;;;;;;31.64;38.96;98891.94;5011697;28;20582;-66
2022/05/30 16:08:29;;;;;;;2.53;2.30;;;;;;;31.71;39.02;98897.28;5013085;28;20221;-66
2022/05/30 16:10:56;;;;;;;2.42;2.22;;;;;;;31.79;39.40;98897.16;5012742;28;20229;-66
2022/05/30 16:13:23;;;;;;;3.08;1.73;;;;;;;31.84;38.94;98905.31;5013135;28;20230;-66
2022/05/30 16:15:52;;;;;;;3.30;2.20;;;;;;;31.91;39.34;98908.03;5009977;28;20288;-66
2022/05/30 16:18:20;;;;;;;2.25;2.05;;;;;;;31.88;38.47;98911.88;5013078;28;20229;-66
2022/05/30 16:20:48;;;;;;;2.22;2.13;;;;;;;31.80;38.60;98912.03;5012811;28;20582;-66
2022/05/30 16:23:17;;;;;;;5.10;2.83;;;;;;;31.70;39.14;98922.97;5012867;28;20293;-65
2022/05/30 16:25:43;;;;;;;3.27;2.17;;;;;;;31.69;39.50;98924.00;5012869;28;20237;-65
2022/05/30 16:28:10;;;;;;;2.78;2.33;;;;;;;31.67;39.17;98922.53;5012701;28;20194;-65
2022/05/30 16:30:37;;;;;;;3.37;2.50;;;;;;;31.59;39.18;98909.44;5012780;28;20198;-66
2022/05/30 16:33:05;;;;;;;1.97;1.83;;;;;;;31.59;38.79;98920.03;5012427;28;20202;-65
2022/05/30 16:35:33;;;;;;;4.53;2.80;;;;;;;31.52;38.90;98921.81;5012681;28;20206;-65
2022/05/30 16:38:00;;;;;;;11.03;6.30;;;;;;;31.49;38.98;98924.81;5012316;28;20288;-66
2022/05/30 16:40:30;;;;;;;2.70;2.60;;;;;;;31.47;38.98;98916.25;5012808;28;20692;-65
2022/05/30 16:42:57;;;;;;;2.53;2.33;;;;;;;31.46;38.27;98911.94;5012233;28;20197;-65
2022/05/30 16:45:26;;;;;;;3.30;3.10;;;;;;;31.46;39.46;98925.19;5012524;28;20194;-65
2022/05/30 16:47:54;;;;;;;4.10;3.90;;;;;;;31.29;40.99;98923.81;5012284;28;20201;-65
2022/05/30 16:50:22;;;;;;;3.27;3.10;;;;;;;31.21;41.06;98917.63;5012107;28;20202;-65
2022/05/30 16:52:51;;;;;;;2.33;2.23;;;;;;;31.11;42.40;98924.25;5012143;28;20214;-65
2022/05/30 16:55:18;;;;;;;3.00;2.73;;;;;;;31.04;43.81;98929.47;5012366;28;20201;-65
2022/05/30 16:57:45;;;;;;;3.20;2.90;;;;;;;30.87;44.55;98929.84;5012146;28;20594;-65
2022/05/30 17:00:14;;;;;;;2.83;2.63;;;;;;;30.72;44.67;98927.25;5011100;28;20598;-65